createdAt,value
2022-09-07T00:00:24.482Z,100305.63
2022-09-07T00:01:28.770Z,100307.56
2022-09-07T00:02:31.001Z,100305.94
2022-09-07T00:03:34.459Z,100300.34
2022-09-07T00:04:36.738Z,100304.78
2022-09-07T00:05:46.653Z,100300.34
2022-09-07T00:06:55.262Z,100303.13
2022-09-07T00:07:58.612Z,100300.63
2022-09-07T00:09:02.945Z,100304.56
2022-09-07T00:10:05.445Z,100296.22
2022-09-07T00:11:12.666Z,100299.00
2022-09-07T00:12:14.931Z,100304.84
2022-09-07T00:13:17.121Z,100304.03
2022-09-07T00:14:19.314Z,100302.34
2022-09-07T00:15:21.617Z,100302.66
2022-09-07T00:16:28.025Z,100303.47
2022-09-07T00:17:30.316Z,100301.84
2022-09-07T00:18:32.531Z,100294.31
2022-09-07T00:19:34.716Z,100297.91
2022-09-07T00:20:36.903Z,100293.50
2022-09-07T00:21:39.192Z,100287.06
2022-09-07T00:22:45.715Z,100289.84
2022-09-07T00:23:49.428Z,100287.38
2022-09-07T00:24:51.603Z,100290.16
2022-09-07T00:25:54.300Z,100284.59
2022-09-07T00:26:56.762Z,100291.00
2022-09-07T00:28:02.393Z,100298.22
2022-09-07T00:29:04.752Z,100296.59
2022-09-07T00:30:07.754Z,100292.13
2022-09-07T00:31:12.836Z,100291.28
2022-09-07T00:32:15.239Z,100294.06
2022-09-07T00:33:17.502Z,100294.06
2022-09-07T00:34:19.697Z,100295.22
2022-09-07T00:35:21.891Z,100290.47
2022-09-07T00:36:24.171Z,100285.19
2022-09-07T00:37:26.427Z,100286.88
2022-09-07T00:38:28.681Z,100282.41
2022-09-07T00:39:31.035Z,100281.56
2022-09-07T00:40:33.268Z,100277.16
2022-09-07T00:41:35.605Z,100280.75
2022-09-07T00:42:37.838Z,100281.88
2022-09-07T00:43:46.967Z,100281.06
2022-09-07T00:45:14.817Z,100277.41
2022-09-07T00:46:20.289Z,100283.00
2022-09-07T00:47:41.994Z,100278.28
2022-09-07T00:48:56.813Z,100286.38
2022-09-07T00:50:05.427Z,100283.59
2022-09-07T00:51:13.325Z,100286.09
2022-09-07T00:52:18.977Z,100279.16
2022-09-07T00:53:28.586Z,100278.34
2022-09-07T00:54:36.945Z,100281.13
2022-09-07T00:55:41.306Z,100282.25
2022-09-07T00:56:45.240Z,100279.47
2022-09-07T00:57:52.927Z,100278.91
2022-09-07T00:58:56.408Z,100276.44
2022-09-07T00:59:59.207Z,100280.34
2022-09-07T01:01:02.164Z,100269.19
2022-09-07T01:02:05.517Z,100273.94
2022-09-07T01:03:10.915Z,100271.16
2022-09-07T01:04:14.263Z,100274.78
2022-09-07T01:05:27.026Z,100265.91
2022-09-07T01:06:32.707Z,100269.81
2022-09-07T01:07:35.139Z,100270.63
2022-09-07T01:08:38.077Z,100265.34
2022-09-07T01:09:40.753Z,100268.16
2022-09-07T01:10:44.289Z,100264.53
2022-09-07T01:11:51.118Z,100263.72
2022-09-07T01:12:53.924Z,100263.72
2022-09-07T01:13:58.234Z,100264.00
2022-09-07T01:15:00.706Z,100264.84
2022-09-07T01:16:35.939Z,100260.41
2022-09-07T01:18:00.954Z,100263.19
2022-09-07T01:19:32.129Z,100252.84
2022-09-07T01:21:00.780Z,100259.84
2022-09-07T01:22:19.763Z,100261.00
2022-09-07T01:23:43.370Z,100259.34
2022-09-07T01:25:11.047Z,100264.91
2022-09-07T01:26:31.689Z,100257.69
2022-09-07T01:28:05.511Z,100256.31
2022-09-07T01:29:27.588Z,100257.97
2022-09-07T01:30:34.919Z,100261.88
2022-09-07T01:31:46.077Z,100258.28
2022-09-07T01:33:15.209Z,100256.63
2022-09-07T01:34:23.789Z,100257.75
2022-09-07T01:35:52.573Z,100254.13
2022-09-07T01:37:34.745Z,100252.78
2022-09-07T01:39:06.414Z,100255.56
2022-09-07T01:40:14.409Z,100253.88
2022-09-07T01:41:23.493Z,100255.81
2022-09-07T01:42:36.113Z,100250.53
2022-09-07T01:43:59.630Z,100255.28
2022-09-07T01:45:04.487Z,100258.06
2022-09-07T01:46:14.202Z,100254.44
2022-09-07T01:47:42.533Z,100251.97
2022-09-07T01:48:48.640Z,100255.59
2022-09-07T01:50:16.589Z,100251.16
2022-09-07T01:51:21.805Z,100255.06
2022-09-07T01:52:59.021Z,100261.44
2022-09-07T01:54:10.766Z,100259.81
2022-09-07T01:55:26.615Z,100256.16
2022-09-07T01:56:36.636Z,100259.81
2022-09-07T01:57:50.435Z,100259.81
2022-09-07T01:58:58.357Z,100259.25
2022-09-07T02:00:13.821Z,100263.69
2022-09-07T02:01:28.781Z,100265.66
2022-09-07T02:02:38.849Z,100262.88
2022-09-07T02:03:49.683Z,100261.22
2022-09-07T02:05:02.181Z,100258.44
2022-09-07T02:06:18.841Z,100265.94
2022-09-07T02:07:39.396Z,100269.03
2022-09-07T02:08:51.251Z,100264.31
2022-09-07T02:10:20.570Z,100264.31
2022-09-07T02:11:36.981Z,100267.38
2022-09-07T02:13:12.334Z,100258.19
2022-09-07T02:14:30.645Z,100256.22
2022-09-07T02:15:56.296Z,100258.50
2022-09-07T02:17:17.286Z,100256.03
2022-09-07T02:18:21.652Z,100255.16
2022-09-07T02:19:26.909Z,100251.56
2022-09-07T02:20:33.733Z,100246.81
2022-09-07T02:21:41.512Z,100252.38
2022-09-07T02:22:49.380Z,100247.13
2022-09-07T02:23:56.182Z,100242.38
2022-09-07T02:25:02.417Z,100241.56
2022-09-07T02:26:10.448Z,100239.88
2022-09-07T02:27:19.497Z,100245.47
2022-09-07T02:28:29.330Z,100248.25
2022-09-07T02:29:32.324Z,100242.97
2022-09-07T02:30:34.743Z,100248.53
2022-09-07T02:31:37.015Z,100241.31
2022-09-07T02:32:39.545Z,100241.31
2022-09-07T02:33:42.696Z,100240.19
2022-09-07T02:34:46.247Z,100238.00
2022-09-07T02:35:48.441Z,100240.50
2022-09-07T02:36:52.416Z,100235.75
2022-09-07T02:37:55.163Z,100232.97
2022-09-07T02:38:57.387Z,100228.50
2022-09-07T02:40:01.595Z,100236.88
2022-09-07T02:41:05.075Z,100234.94
2022-09-07T02:42:07.449Z,100236.88
2022-09-07T02:43:11.633Z,100238.00
2022-09-07T02:44:36.206Z,100228.81
2022-09-07T02:45:56.199Z,100226.88
2022-09-07T02:47:09.774Z,100225.22
2022-09-07T02:48:29.298Z,100219.66
2022-09-07T02:49:44.251Z,100219.66
2022-09-07T02:50:56.416Z,100216.03
2022-09-07T02:52:25.877Z,100214.09
2022-09-07T02:53:53.759Z,100218.53
2022-09-07T02:55:11.103Z,100218.81
2022-09-07T02:56:28.551Z,100218.81
2022-09-07T02:57:58.424Z,100217.97
2022-09-07T02:59:39.123Z,100225.78
2022-09-07T03:00:56.766Z,100223.00
2022-09-07T03:02:14.256Z,100224.16
2022-09-07T03:03:54.715Z,100222.50
2022-09-07T03:05:19.872Z,100224.16
2022-09-07T03:06:38.436Z,100220.81
2022-09-07T03:07:54.636Z,100217.53
2022-09-07T03:09:01.642Z,100218.34
2022-09-07T03:10:06.844Z,100215.88
2022-09-07T03:11:09.199Z,100221.44
2022-09-07T03:12:12.640Z,100224.22
2022-09-07T03:13:22.697Z,100223.38
2022-09-07T03:14:26.382Z,100226.16
2022-09-07T03:15:28.765Z,100228.13
2022-09-07T03:16:30.947Z,100240.06
2022-09-07T03:17:33.142Z,100235.66
2022-09-07T03:18:35.304Z,100230.09
2022-09-07T03:19:37.878Z,100236.47
2022-09-07T03:20:40.073Z,100239.25
2022-09-07T03:21:42.766Z,100239.25
2022-09-07T03:22:46.788Z,100236.47
2022-09-07T03:23:51.856Z,100244.00
2022-09-07T03:24:54.222Z,100243.16
2022-09-07T03:25:56.484Z,100238.44
2022-09-07T03:26:58.796Z,100241.47
2022-09-07T03:28:01.046Z,100241.22
2022-09-07T03:29:03.238Z,100240.38
2022-09-07T03:30:09.763Z,100238.44
2022-09-07T03:31:12.131Z,100244.81
2022-09-07T03:32:14.405Z,100237.59
2022-09-07T03:33:18.256Z,100237.88
2022-09-07T03:34:20.496Z,100235.91
2022-09-07T03:35:22.643Z,100235.66
2022-09-07T03:36:24.969Z,100228.41
2022-09-07T03:37:27.440Z,100230.09
2022-09-07T03:38:30.841Z,100222.00
2022-09-07T03:39:33.146Z,100226.75
2022-09-07T03:40:35.386Z,100230.66
2022-09-07T03:41:37.674Z,100221.50
2022-09-07T03:42:40.552Z,100222.59
2022-09-07T03:43:42.817Z,100234.56
2022-09-07T03:44:45.401Z,100230.13
2022-09-07T03:45:49.833Z,100235.69
2022-09-07T03:46:52.031Z,100225.69
2022-09-07T03:47:54.229Z,100234.84
2022-09-07T03:48:56.838Z,100235.97
2022-09-07T03:49:58.993Z,100234.34
2022-09-07T03:51:03.976Z,100234.34
2022-09-07T03:52:06.184Z,100239.91
2022-09-07T03:53:08.473Z,100241.03
2022-09-07T03:54:10.769Z,100246.28
2022-09-07T03:55:13.001Z,100237.94
2022-09-07T03:56:18.427Z,100239.91
2022-09-07T03:57:20.597Z,100237.13
2022-09-07T03:58:23.179Z,100241.84
2022-09-07T03:59:25.775Z,100239.91
2022-09-07T04:00:27.987Z,100238.25
2022-09-07T04:01:30.282Z,100239.91
2022-09-07T04:02:32.599Z,100234.59
2022-09-07T04:03:35.250Z,100232.69
2022-09-07T04:04:37.501Z,100231.00
2022-09-07T04:05:39.690Z,100233.78
2022-09-07T04:06:41.979Z,100227.41
2022-09-07T04:07:45.123Z,100224.31
2022-09-07T04:08:47.547Z,100222.66
2022-09-07T04:09:54.737Z,100223.47
2022-09-07T04:10:58.632Z,100229.34
2022-09-07T04:12:00.895Z,100223.78
2022-09-07T04:13:03.077Z,100224.63
2022-09-07T04:14:06.139Z,100226.56
2022-09-07T04:15:08.986Z,100226.56
2022-09-07T04:16:14.801Z,100224.09
2022-09-07T04:17:16.987Z,100229.66
2022-09-07T04:18:19.773Z,100226.56
2022-09-07T04:19:22.023Z,100231.63
2022-09-07T04:20:24.505Z,100236.03
2022-09-07T04:21:28.966Z,100235.22
2022-09-07T04:22:31.128Z,100236.31
2022-09-07T04:23:33.396Z,100232.44
2022-09-07T04:24:37.460Z,100231.63
2022-09-07T04:25:48.164Z,100231.63
2022-09-07T04:26:51.201Z,100236.03
2022-09-07T04:27:53.411Z,100230.47
2022-09-07T04:28:56.021Z,100234.91
2022-09-07T04:29:58.222Z,100225.75
2022-09-07T04:31:02.166Z,100227.69
2022-09-07T04:32:04.403Z,100233.25
2022-09-07T04:33:06.642Z,100227.69
2022-09-07T04:34:11.014Z,100232.44
2022-09-07T04:35:14.690Z,100231.63
2022-09-07T04:36:18.500Z,100232.44
2022-09-07T04:37:20.667Z,100231.31
2022-09-07T04:38:22.854Z,100224.09
2022-09-07T04:39:25.052Z,100234.09
2022-09-07T04:40:27.234Z,100223.78
2022-09-07T04:41:31.312Z,100231.63
2022-09-07T04:42:33.578Z,100222.13
2022-09-07T04:43:38.163Z,100224.63
2022-09-07T04:44:40.424Z,100221.84
2022-09-07T04:45:42.665Z,100220.19
2022-09-07T04:46:44.923Z,100222.97
2022-09-07T04:47:51.084Z,100224.91
2022-09-07T04:48:55.788Z,100231.00
2022-09-07T04:49:58.130Z,100227.09
2022-09-07T04:51:23.981Z,100232.69
2022-09-07T04:52:26.202Z,100222.66
2022-09-07T04:53:28.390Z,100220.69
2022-09-07T04:54:31.123Z,100221.53
2022-09-07T04:55:33.331Z,100226.81
2022-09-07T04:56:35.578Z,100228.78
2022-09-07T04:57:40.994Z,100226.81
2022-09-07T04:58:43.303Z,100235.16
2022-09-07T04:59:45.469Z,100227.63
2022-09-07T05:00:47.695Z,100228.47
2022-09-07T05:01:49.953Z,100226.50
2022-09-07T05:02:52.150Z,100227.34
2022-09-07T05:03:54.756Z,100220.66
2022-09-07T05:05:02.002Z,100237.06
2022-09-07T05:06:06.428Z,100230.66
2022-09-07T05:07:08.671Z,100233.97
2022-09-07T05:08:12.134Z,100227.28
2022-09-07T05:09:14.318Z,100230.91
2022-09-07T05:10:16.614Z,100225.88
2022-09-07T05:11:24.978Z,100222.78
2022-09-07T05:12:30.092Z,100229.72
2022-09-07T05:13:32.484Z,100221.88
2022-09-07T05:14:35.063Z,100222.13
2022-09-07T05:15:37.257Z,100223.50
2022-09-07T05:16:39.475Z,100222.06
2022-09-07T05:17:41.730Z,100225.09
2022-09-07T05:18:44.271Z,100220.88
2022-09-07T05:19:48.142Z,100221.63
2022-09-07T05:20:50.354Z,100217.72
2022-09-07T05:21:52.530Z,100219.09
2022-09-07T05:22:59.705Z,100212.66
2022-09-07T05:24:02.285Z,100219.56
2022-09-07T05:25:04.818Z,100220.13
2022-09-07T05:26:07.811Z,100219.00
2022-09-07T05:27:09.996Z,100216.44
2022-09-07T05:28:17.300Z,100215.03
2022-09-07T05:32:06.087Z,100219.38
2022-09-07T05:33:08.359Z,100221.56
2022-09-07T05:35:33.127Z,100217.06
2022-09-07T05:36:36.079Z,100223.69
2022-09-07T05:37:38.829Z,100216.97
2022-09-07T05:38:41.123Z,100215.56
2022-09-07T05:39:44.266Z,100217.22
2022-09-07T05:40:47.147Z,100216.59
2022-09-07T05:41:49.826Z,100222.41
2022-09-07T05:42:52.026Z,100217.03
2022-09-07T05:45:17.404Z,100227.53
2022-09-07T05:46:20.673Z,100221.03
2022-09-07T05:47:23.414Z,100221.25
2022-09-07T05:48:25.592Z,100221.19
2022-09-07T05:49:27.836Z,100226.66
2022-09-07T05:50:30.060Z,100228.56
2022-09-07T05:51:32.229Z,100229.28
2022-09-07T05:52:35.343Z,100229.53
2022-09-07T05:53:39.227Z,100225.53
2022-09-07T05:54:41.502Z,100227.72
2022-09-07T05:55:43.697Z,100224.00
2022-09-07T05:56:45.876Z,100228.69
2022-09-07T05:57:50.584Z,100218.25
2022-09-07T05:58:52.811Z,100223.72
2022-09-07T05:59:55.025Z,100217.25
2022-09-07T06:01:00.823Z,100216.53
2022-09-07T06:02:03.132Z,100216.66
2022-09-07T06:03:05.549Z,100221.00
2022-09-07T06:04:07.884Z,100213.03
2022-09-07T06:05:13.831Z,100219.56
2022-09-07T06:06:19.321Z,100218.84
2022-09-07T06:07:22.677Z,100208.09
2022-09-07T06:08:25.571Z,100212.97
2022-09-07T06:09:30.497Z,100208.94
2022-09-07T06:11:42.836Z,100207.78
2022-09-07T06:12:49.045Z,100207.16
2022-09-07T06:13:52.268Z,100206.22
2022-09-07T06:14:54.501Z,100200.53
2022-09-07T06:16:01.266Z,100205.16
2022-09-07T06:17:03.471Z,100204.22
2022-09-07T06:18:05.702Z,100194.06
2022-09-07T06:19:08.486Z,100193.44
2022-09-07T06:20:10.955Z,100192.81
2022-09-07T06:21:19.044Z,100194.16
2022-09-07T06:22:21.574Z,100187.91
2022-09-07T06:23:23.787Z,100187.28
2022-09-07T06:24:25.966Z,100181.06
2022-09-07T06:25:28.151Z,100185.69
2022-09-07T06:26:30.514Z,100182.28
2022-09-07T06:27:32.789Z,100185.78
2022-09-07T06:28:37.580Z,100184.03
2022-09-07T06:29:39.791Z,100173.53
2022-09-07T06:30:42.011Z,100187.09
2022-09-07T06:33:06.447Z,100198.38
2022-09-07T06:34:09.071Z,100195.13
2022-09-07T06:35:11.645Z,100198.31
2022-09-07T06:36:22.348Z,100196.38
2022-09-07T06:37:24.550Z,100193.94
2022-09-07T06:38:34.470Z,100196.78
2022-09-07T06:39:37.374Z,100187.28
2022-09-07T06:40:39.634Z,100192.13
2022-09-07T06:43:06.401Z,100201.06
2022-09-07T06:44:08.607Z,100203.91
2022-09-07T06:45:11.733Z,100209.50
2022-09-07T06:47:37.629Z,100208.44
2022-09-07T06:48:44.200Z,100203.16
2022-09-07T06:49:46.710Z,100204.84
2022-09-07T06:51:03.851Z,100201.72
2022-09-07T06:52:06.107Z,100204.22
2022-09-07T06:55:53.125Z,100195.91
2022-09-07T06:56:55.686Z,100208.28
2022-09-07T06:57:57.917Z,100199.06
2022-09-07T06:59:00.182Z,100196.88
2022-09-07T07:00:03.536Z,100198.88
2022-09-07T07:01:23.075Z,100201.31
2022-09-07T07:02:25.341Z,100198.50
2022-09-07T07:03:28.640Z,100203.25
2022-09-07T07:04:31.097Z,100187.53
2022-09-07T07:05:33.580Z,100190.50
2022-09-07T07:06:37.384Z,100191.78
2022-09-07T07:07:39.620Z,100191.25
2022-09-07T07:08:42.115Z,100186.75
2022-09-07T07:09:44.285Z,100186.25
2022-09-07T07:10:46.607Z,100184.56
2022-09-07T07:11:48.936Z,100187.63
2022-09-07T07:12:53.209Z,100195.56
2022-09-07T07:13:55.463Z,100194.16
2022-09-07T07:14:57.717Z,100198.44
2022-09-07T07:16:10.213Z,100190.28
2022-09-07T07:17:12.998Z,100201.81
2022-09-07T07:18:21.270Z,100191.19
2022-09-07T07:19:23.904Z,100194.63
2022-09-07T07:20:26.145Z,100193.56
2022-09-07T07:21:38.243Z,100190.59
2022-09-07T07:22:52.332Z,100185.25
2022-09-07T07:23:54.559Z,100189.34
2022-09-07T07:24:56.761Z,100187.13
2022-09-07T07:26:12.630Z,100178.47
2022-09-07T07:27:14.857Z,100181.09
2022-09-07T07:29:39.225Z,100184.28
2022-09-07T07:30:41.402Z,100178.44
2022-09-07T07:31:43.940Z,100184.19
2022-09-07T07:32:46.750Z,100185.16
2022-09-07T07:33:49.235Z,100172.38
2022-09-07T07:34:51.436Z,100179.31
2022-09-07T07:35:53.613Z,100177.78
2022-09-07T07:36:55.860Z,100170.28
2022-09-07T07:40:43.007Z,100171.38
2022-09-07T07:42:55.141Z,100173.97
2022-09-07T07:44:00.563Z,100168.03
2022-09-07T07:46:26.102Z,100165.91
2022-09-07T07:47:28.866Z,100176.13
2022-09-07T07:48:33.048Z,100179.53
2022-09-07T07:49:35.215Z,100165.91
2022-09-07T07:50:37.447Z,100169.34
2022-09-07T07:54:24.118Z,100158.63
2022-09-07T07:56:48.824Z,100164.28
2022-09-07T07:57:50.942Z,100160.88
2022-09-07T07:58:53.689Z,100159.47
2022-09-07T07:59:58.007Z,100152.75
2022-09-07T08:01:06.783Z,100157.78
2022-09-07T08:02:15.205Z,100161.56
2022-09-07T08:03:18.366Z,100142.28
2022-09-07T08:04:20.502Z,100146.94
2022-09-07T08:05:22.630Z,100152.34
2022-09-07T08:06:24.772Z,100158.56
2022-09-07T08:07:26.946Z,100143.84
2022-09-07T08:08:30.313Z,100156.16
2022-09-07T08:09:32.611Z,100156.38
2022-09-07T08:10:35.766Z,100162.25
2022-09-07T08:11:40.190Z,100162.44
2022-09-07T08:12:42.354Z,100168.28
2022-09-07T08:13:46.413Z,100172.03
2022-09-07T08:14:48.690Z,100173.78
2022-09-07T08:15:50.980Z,100176.00
2022-09-07T08:16:53.214Z,100167.63
2022-09-07T08:17:55.350Z,100166.88
2022-09-07T08:18:58.209Z,100163.44
2022-09-07T08:20:00.565Z,100170.84
2022-09-07T08:21:05.103Z,100162.47
2022-09-07T08:22:08.858Z,100165.50
2022-09-07T08:23:11.827Z,100172.06
2022-09-07T08:24:14.363Z,100167.78
2022-09-07T08:25:17.585Z,100165.84
2022-09-07T08:26:19.728Z,100161.97
2022-09-07T08:27:21.912Z,100175.81
2022-09-07T08:28:25.683Z,100165.03
2022-09-07T08:29:31.302Z,100162.31
2022-09-07T08:30:40.102Z,100164.88
2022-09-07T08:31:42.727Z,100173.06
2022-09-07T08:32:45.042Z,100173.06
2022-09-07T08:33:47.244Z,100172.31
2022-09-07T08:34:49.475Z,100160.72
2022-09-07T08:36:00.100Z,100160.00
2022-09-07T08:37:02.242Z,100158.47
2022-09-07T08:38:04.424Z,100155.72
2022-09-07T08:39:06.595Z,100157.09
2022-09-07T08:40:18.183Z,100160.00
2022-09-07T08:41:45.007Z,100155.97
2022-09-07T08:43:03.185Z,100149.59
2022-09-07T08:44:25.896Z,100149.31
2022-09-07T08:45:34.317Z,100147.38
2022-09-07T08:46:42.601Z,100145.81
2022-09-07T08:47:53.157Z,100147.47
2022-09-07T08:48:58.576Z,100144.69
2022-09-07T08:50:09.850Z,100154.09
2022-09-07T08:51:21.132Z,100144.94
2022-09-07T08:52:37.448Z,100143.75
2022-09-07T08:53:46.262Z,100147.09
2022-09-07T08:55:01.167Z,100150.84
2022-09-07T08:56:12.424Z,100152.56
2022-09-07T08:57:21.115Z,100144.16
2022-09-07T08:58:48.688Z,100146.69
2022-09-07T09:00:04.992Z,100135.91
2022-09-07T09:02:43.938Z,100140.50
2022-09-07T09:05:25.637Z,100140.66
2022-09-07T09:06:55.312Z,100138.72
2022-09-07T09:08:03.984Z,100130.25
2022-09-07T09:09:16.695Z,100140.09
2022-09-07T09:10:43.345Z,100127.22
2022-09-07T09:12:37.524Z,100130.91
2022-09-07T09:14:13.778Z,100130.91
2022-09-07T09:15:26.406Z,100131.75
2022-09-07T09:16:35.802Z,100144.72
2022-09-07T09:18:01.141Z,100127.28
2022-09-07T09:19:40.693Z,100129.66
2022-09-07T09:20:51.070Z,100128.47
2022-09-07T09:22:07.767Z,100119.53
2022-09-07T09:23:13.666Z,100131.59
2022-09-07T09:24:19.194Z,100131.59
2022-09-07T09:25:32.872Z,100128.69
2022-09-07T09:26:35.658Z,100127.09
2022-09-07T09:27:40.057Z,100133.94
2022-09-07T09:28:42.231Z,100127.09
2022-09-07T09:29:44.614Z,100127.09
2022-09-07T09:30:48.240Z,100125.88
2022-09-07T09:31:50.535Z,100118.22
2022-09-07T09:33:13.957Z,100120.72
2022-09-07T09:34:18.144Z,100118.31
2022-09-07T09:35:32.666Z,100119.53
2022-09-07T09:36:40.642Z,100116.75
2022-09-07T09:37:43.925Z,100118.47
2022-09-07T09:38:46.053Z,100126.16
2022-09-07T09:40:00.647Z,100117.72
2022-09-07T09:41:11.320Z,100121.81
2022-09-07T09:42:13.427Z,100117.44
2022-09-07T09:43:22.138Z,100120.34
2022-09-07T09:44:31.332Z,100121.13
2022-09-07T09:48:42.605Z,100121.22
2022-09-07T09:49:45.624Z,100113.91
2022-09-07T09:52:42.245Z,100102.56
2022-09-07T09:53:54.562Z,100110.66
2022-09-07T09:55:03.420Z,100111.38
2022-09-07T09:56:14.927Z,100110.97
2022-09-07T09:57:38.651Z,100104.00
2022-09-07T10:00:27.929Z,100106.25
2022-09-07T10:01:36.389Z,100098.88
2022-09-07T10:04:32.110Z,100108.00
2022-09-07T10:05:40.661Z,100103.47
2022-09-07T10:06:50.555Z,100107.50
2022-09-07T10:07:53.785Z,100106.22
2022-09-07T10:09:02.032Z,100104.16
2022-09-07T10:10:04.486Z,100111.31
2022-09-07T10:11:09.242Z,100103.94
2022-09-07T10:12:33.140Z,100099.03
2022-09-07T10:13:57.909Z,100099.34
2022-09-07T10:15:02.180Z,100095.63
2022-09-07T10:16:07.169Z,100100.44
2022-09-07T10:17:18.396Z,100098.34
2022-09-07T10:18:29.088Z,100097.06
2022-09-07T10:19:38.594Z,100090.16
2022-09-07T10:20:40.811Z,100105.84
2022-09-07T10:21:45.045Z,100099.38
2022-09-07T10:22:53.345Z,100100.13
2022-09-07T10:23:59.722Z,100100.06
2022-09-07T10:25:04.313Z,100096.41
2022-09-07T10:26:44.907Z,100101.16
2022-09-07T10:27:47.028Z,100097.06
2022-09-07T10:29:06.859Z,100093.44
2022-09-07T10:30:16.186Z,100098.16
2022-09-07T10:31:26.113Z,100094.06
2022-09-07T10:33:00.795Z,100099.69
2022-09-07T10:34:31.636Z,100093.94
2022-09-07T10:35:43.386Z,100099.50
2022-09-07T10:36:56.947Z,100095.78
2022-09-07T10:38:17.445Z,100099.78
2022-09-07T10:39:28.081Z,100096.88
2022-09-07T10:40:36.127Z,100104.09
2022-09-07T10:41:59.476Z,100091.53
2022-09-07T10:43:23.323Z,100097.53
2022-09-07T10:44:34.624Z,100087.31
2022-09-07T10:45:45.423Z,100092.53
2022-09-07T10:46:56.538Z,100106.22
2022-09-07T10:48:24.298Z,100091.63
2022-09-07T10:50:22.030Z,100098.84
2022-09-07T10:51:17.685Z,100091.53
2022-09-07T10:52:40.323Z,100090.72
2022-09-07T10:55:38.881Z,100091.53
2022-09-07T10:57:01.436Z,100088.72
2022-09-07T10:59:01.490Z,100093.19
2022-09-07T11:00:17.420Z,100084.22
2022-09-07T11:01:39.151Z,100088.34
2022-09-07T11:03:28.145Z,100082.69
2022-09-07T11:04:38.566Z,100091.63
2022-09-07T11:05:59.672Z,100083.59
2022-09-07T11:07:21.194Z,100090.06
2022-09-07T11:10:32.175Z,100090.16
2022-09-07T11:13:08.313Z,100087.06
2022-09-07T11:14:16.535Z,100085.88
2022-09-07T11:15:27.545Z,100087.50
2022-09-07T11:16:51.182Z,100083.50
2022-09-07T11:18:15.025Z,100091.16
2022-09-07T11:19:38.343Z,100086.31
2022-09-07T11:20:55.563Z,100077.47
2022-09-07T11:22:15.183Z,100081.56
2022-09-07T11:23:23.539Z,100080.38
2022-09-07T11:24:36.864Z,100077.19
2022-09-07T11:26:07.560Z,100082.44
2022-09-07T11:27:16.289Z,100076.44
2022-09-07T11:28:25.816Z,100090.22
2022-09-07T11:29:33.280Z,100074.06
2022-09-07T11:30:46.163Z,100082.09
2022-09-07T11:31:54.440Z,100069.16
2022-09-07T11:32:57.311Z,100073.25
2022-09-07T11:34:25.884Z,100069.59
2022-09-07T11:35:35.280Z,100072.88
2022-09-07T11:36:46.262Z,100070.50
2022-09-07T11:37:59.587Z,100066.47
2022-09-07T11:39:13.106Z,100073.38
2022-09-07T11:40:30.620Z,100066.53
2022-09-07T11:41:55.928Z,100068.19
2022-09-07T11:43:19.936Z,100064.56
2022-09-07T11:44:28.785Z,100049.66
2022-09-07T11:45:43.431Z,100054.56
2022-09-07T11:46:49.442Z,100053.00
2022-09-07T11:48:00.725Z,100056.72
2022-09-07T11:49:07.580Z,100059.63
2022-09-07T11:50:24.273Z,100049.56
2022-09-07T11:52:05.857Z,100064.22
2022-09-07T11:53:17.839Z,100051.34
2022-09-07T11:54:31.155Z,100040.94
2022-09-07T11:55:38.450Z,100037.34
2022-09-07T11:56:45.598Z,100047.50
2022-09-07T11:58:10.143Z,100039.81
2022-09-07T11:59:24.477Z,100041.47
2022-09-07T12:01:06.621Z,100041.16
2022-09-07T12:02:55.427Z,100039.22
2022-09-07T12:04:02.875Z,100041.28
2022-09-07T12:05:45.272Z,100047.78
2022-09-07T12:07:03.404Z,100037.28
2022-09-07T12:08:27.588Z,100038.91
2022-09-07T12:09:53.655Z,100044.56
2022-09-07T12:11:07.812Z,100032.06
2022-09-07T12:12:31.427Z,100025.94
2022-09-07T12:14:00.230Z,100034.81
2022-09-07T12:15:21.396Z,100026.25
2022-09-07T12:16:29.511Z,100037.56
2022-09-07T12:17:45.021Z,100031.50
2022-09-07T12:19:33.043Z,100041.97
2022-09-07T12:20:46.178Z,100026.94
2022-09-07T12:21:58.027Z,100013.56
2022-09-07T12:23:21.062Z,100014.72
2022-09-07T12:24:32.532Z,100011.44
2022-09-07T12:25:35.326Z,100012.19
2022-09-07T12:26:37.425Z,100016.59
2022-09-07T12:27:40.603Z,100021.78
2022-09-07T12:28:45.789Z,100023.38
2022-09-07T12:30:11.960Z,100020.91
2022-09-07T12:31:58.207Z,100024.03
2022-09-07T12:33:04.622Z,100023.16
2022-09-07T12:34:31.718Z,100027.53
2022-09-07T12:35:33.818Z,100031.94
2022-09-07T12:36:35.906Z,100047.25
2022-09-07T12:37:40.204Z,100050.03
2022-09-07T12:39:21.227Z,100043.13
2022-09-07T12:40:29.823Z,100038.56
2022-09-07T12:41:44.625Z,100035.31
2022-09-07T12:42:48.826Z,100033.19
2022-09-07T12:43:50.939Z,100027.13
2022-09-07T12:45:30.234Z,100021.38
2022-09-07T12:46:34.762Z,100020.50
2022-09-07T12:47:38.654Z,100013.19
2022-09-07T12:49:00.305Z,100015.13
2022-09-07T12:50:13.934Z,100023.13
2022-09-07T12:53:39.258Z,100045.22
2022-09-07T12:55:23.570Z,100062.56
2022-09-07T12:57:29.028Z,100057.19
2022-09-07T12:58:28.302Z,100066.00
2022-09-07T12:59:51.125Z,100068.41
2022-09-07T13:01:17.281Z,100059.84
2022-09-07T13:02:41.601Z,100069.06
2022-09-07T13:04:27.833Z,100062.50
2022-09-07T13:05:46.441Z,100070.88
2022-09-07T13:07:20.970Z,100061.94
2022-09-07T13:08:50.454Z,100064.69
2022-09-07T13:09:57.969Z,100066.59
2022-09-07T13:11:19.402Z,100070.19
2022-09-07T13:14:04.694Z,100067.16
2022-09-07T13:15:34.070Z,100060.63
2022-09-07T13:18:01.128Z,100050.78
2022-09-07T13:19:11.034Z,100048.66
2022-09-07T13:20:23.755Z,100048.22
2022-09-07T13:21:35.163Z,100032.00
2022-09-07T13:22:37.310Z,100029.91
2022-09-07T13:23:43.123Z,100035.94
2022-09-07T13:24:56.433Z,100037.47
2022-09-07T13:26:00.495Z,100041.00
2022-09-07T13:27:05.759Z,100030.09
2022-09-07T13:28:41.804Z,100034.81
2022-09-07T13:29:58.751Z,100029.56
2022-09-07T13:31:31.509Z,100039.94
2022-09-07T13:33:57.262Z,100044.22
2022-09-07T13:35:04.601Z,100043.38
2022-09-07T13:36:19.597Z,100046.94
2022-09-07T13:37:26.351Z,100043.63
2022-09-07T13:38:30.712Z,100035.09
2022-09-07T13:39:40.783Z,100034.25
2022-09-07T13:40:47.095Z,100025.72
2022-09-07T13:41:53.109Z,100024.88
2022-09-07T13:42:57.088Z,100017.59
2022-09-07T13:44:01.785Z,100015.97
2022-09-07T13:45:07.425Z,100010.69
2022-09-07T13:46:32.182Z,100005.03
2022-09-07T13:48:01.742Z,99988.09
2022-09-07T13:49:17.771Z,99988.09
2022-09-07T13:50:51.765Z,100001.88
2022-09-07T13:52:24.034Z,100002.69
2022-09-07T13:53:47.482Z,100012.78
2022-09-07T13:55:06.567Z,100010.41
2022-09-07T13:56:36.285Z,100016.88
2022-09-07T13:57:53.548Z,100023.81
2022-09-07T13:58:56.586Z,100011.69
2022-09-07T13:59:59.236Z,100014.13